Portada
METAR-TAF:

METAR-TAF

Aeroports :

Hohhot, Xina

latitud: 40-49N, longitud: 111-41E, altitud: 1065 m

Observació

L'informe es va fer fa 1 hora i 9 minuts, a les 16:00 UTC
Vent 4 kt del Est
Temperatura 20°C
Humitat 56%
Pressió 1005 hPa
Visibilitat 10 km o més
sense núvols per sota de 1500 mi sense presència de cumulonimbus.

METAR: ZBHH 141600Z 10002MPS CAVOK 20/11 Q1005 NOSIG

Hora: 01:09 (17:09 UTC)

Pronòstic

L'informe es va fer fa 8 hores i 2 minuts, a les 09:07 UTC
Pronòstic vàlid del 14 a les 12 UTC al 15 a les 12 UTC
Vent 8 kt del Nord/Nord-Oest
Visibilitat 10 km o més
Escasses núvols a una alçada de 4000 ft

TAF: ZBHH 140907Z 1412/1512 33004MPS 9999 FEW040 TX29/1507Z TN17/1422Z

Observacions i pronòstics meteorològics de més de 4000 aeroports (METAR i TAF).

Les estacions disponibles són els punts grocs i vermells al mapa.

Posi el ratolí al punt desitjat per veure el nom de l'estació.

Feu clic per veure les observacions i els pronòstics meteorològics.

Per canviar el mapa: feu clic els botons verds amb una creu de color negre per apropar; al botó verd amb un guió per allunyar la imatge; o en les fletxes verdes per a mapes adjacents.


METAR-TAF: